Time;durP1;ratioP1;P1;durP2;ratioP2;P2;SDS_P1;SDS_P2;PMS_P1;PMS_P2;Temp;Humidity;BMP_temperature;BMP_pressure;BME280_temperature;BME280_humidity;BME280_pressure;Samples;Min_cycle;Max_cycle;Signal;HPM_P1;HPM_P2
2021/03/22 00:01:04;;;;;;;15.53;9.70;;;2.50;99.90;;;;;;5029977;28;20444;-47
2021/03/22 00:03:31;;;;;;;17.07;10.50;;;2.50;99.90;;;;;;5030381;28;20828;-47
2021/03/22 00:05:58;;;;;;;14.83;9.00;;;2.50;99.90;;;;;;5030311;28;20846;-47
2021/03/22 00:08:25;;;;;;;16.20;9.70;;;2.50;99.90;;;;;;5020670;28;20442;-47
2021/03/22 00:10:52;;;;;;;17.60;9.57;;;2.50;99.90;;;;;;5015110;28;20449;-47
2021/03/22 00:13:21;;;;;;;23.07;10.27;;;2.50;99.90;;;;;;5029766;28;20478;-47
2021/03/22 00:15:48;;;;;;;17.07;10.03;;;2.40;99.90;;;;;;5030220;28;20502;-46
2021/03/22 00:18:17;;;;;;;20.40;10.57;;;2.40;99.90;;;;;;5019877;28;21062;-47
2021/03/22 00:20:45;;;;;;;20.43;11.93;;;2.20;99.90;;;;;;5030396;28;20444;-47
2021/03/22 00:23:11;;;;;;;17.70;10.53;;;2.30;99.90;;;;;;5030265;28;20483;-47
2021/03/22 00:25:38;;;;;;;21.97;11.60;;;2.40;99.90;;;;;;5031331;28;20807;-47
2021/03/22 00:28:05;;;;;;;20.20;11.00;;;2.50;99.90;;;;;;5033726;28;20501;-47
2021/03/22 00:30:36;;;;;;;24.10;11.60;;;2.40;99.90;;;;;;5033190;28;20463;-47
2021/03/22 00:33:03;;;;;;;21.60;12.20;;;2.30;99.90;;;;;;5034224;28;20468;-47
2021/03/22 00:35:30;;;;;;;20.20;11.57;;;2.30;99.90;;;;;;5033524;28;22106;-47
2021/03/22 00:37:57;;;;;;;20.90;11.40;;;2.30;99.90;;;;;;5032989;28;20857;-47
2021/03/22 00:40:26;;;;;;;19.47;12.20;;;2.40;99.90;;;;;;5028066;28;20453;-47
2021/03/22 00:42:53;;;;;;;18.70;11.77;;;2.40;99.90;;;;;;5030848;28;20475;-47
2021/03/22 00:45:21;;;;;;;20.77;11.77;;;2.30;99.90;;;;;;5032749;28;20451;-47
2021/03/22 00:47:49;;;;;;;20.67;11.60;;;2.20;99.90;;;;;;5033532;28;20509;-47
2021/03/22 00:50:20;;;;;;;20.20;11.90;;;2.30;99.90;;;;;;5033520;28;20444;-47
2021/03/22 00:52:47;;;;;;;19.17;11.33;;;2.40;99.90;;;;;;5033649;28;20472;-48
2021/03/22 00:55:14;;;;;;;18.73;11.07;;;2.40;99.90;;;;;;5033290;28;20452;-48
2021/03/22 00:57:41;;;;;;;19.30;11.67;;;2.50;99.90;;;;;;5013973;28;21006;-47
2021/03/22 01:00:10;;;;;;;20.77;11.80;;;2.60;99.90;;;;;;5029367;28;20456;-48
2021/03/22 01:02:36;;;;;;;22.40;11.63;;;2.60;99.90;;;;;;5033151;28;20883;-47
2021/03/22 01:05:05;;;;;;;19.77;11.67;;;2.50;99.90;;;;;;5033326;28;20455;-47
2021/03/22 01:07:31;;;;;;;24.50;12.37;;;2.50;99.90;;;;;;5026974;28;20457;-47
2021/03/22 01:09:57;;;;;;;20.80;12.03;;;2.60;99.90;;;;;;5013661;28;20479;-47
2021/03/22 01:12:25;;;;;;;24.30;12.83;;;2.50;99.90;;;;;;5018807;28;20451;-47
2021/03/22 01:14:51;;;;;;;25.20;13.27;;;2.50;99.90;;;;;;5032960;28;20511;-47
2021/03/22 01:17:18;;;;;;;23.43;12.80;;;2.40;99.90;;;;;;5032199;28;20456;-47
2021/03/22 01:19:44;;;;;;;23.20;13.20;;;2.50;99.90;;;;;;5033437;28;20452;-47
2021/03/22 01:22:11;;;;;;;24.57;14.20;;;2.40;99.90;;;;;;5032997;28;20452;-47
2021/03/22 01:24:37;;;;;;;22.80;13.63;;;2.40;99.90;;;;;;5070109;22;20545;-50
2021/03/22 01:27:07;;;;;;;21.30;12.90;;;2.20;99.90;;;;;;5044861;28;20441;-50
2021/03/22 01:29:40;;;;;;;23.07;13.77;;;2.30;99.90;;;;;;5052923;28;20452;-50
2021/03/22 01:32:08;;;;;;;27.77;14.70;;;2.40;99.90;;;;;;5053041;28;20448;-50
2021/03/22 01:34:35;;;;;;;21.33;13.47;;;2.40;99.90;;;;;;5037474;28;20846;-50
2021/03/22 01:37:02;;;;;;;22.43;13.97;;;2.40;99.90;;;;;;5016091;28;20446;-49
2021/03/22 01:39:34;;;;;;;25.63;13.70;;;2.50;99.90;;;;;;5012832;28;20509;-51
2021/03/22 01:42:30;;;;;;;27.17;14.50;;;2.40;99.90;;;;;;5013260;28;20454;-50
2021/03/22 01:45:00;;;;;;;22.63;13.73;;;2.30;99.90;;;;;;5007634;28;20859;-50
2021/03/22 01:47:29;;;;;;;26.10;14.70;;;2.40;99.90;;;;;;5005023;28;20532;-51
2021/03/22 01:49:59;;;;;;;24.40;14.83;;;2.40;99.90;;;;;;5008328;28;20456;-50
2021/03/22 01:52:27;;;;;;;26.17;14.10;;;2.40;99.90;;;;;;5012661;28;20912;-51
2021/03/22 01:54:54;;;;;;;24.70;14.57;;;2.40;99.90;;;;;;5012469;28;21076;-50
2021/03/22 01:57:31;;;;;;;23.10;14.20;;;2.30;99.90;;;;;;5011786;28;20465;-49
2021/03/22 02:00:20;;;;;;;25.30;14.50;;;2.30;99.90;;;;;;5012778;28;20449;-51
2021/03/22 02:02:49;;;;;;;28.53;16.03;;;2.20;99.90;;;;;;5024304;28;20452;-50
2021/03/22 02:05:19;;;;;;;28.87;15.13;;;2.00;99.90;;;;;;5018187;28;20448;-50
2021/03/22 02:07:51;;;;;;;28.50;14.67;;;2.00;99.90;;;;;;5017935;28;20510;-51
2021/03/22 02:10:18;;;;;;;29.33;15.67;;;2.10;99.90;;;;;;5024309;28;20461;-49
2021/03/22 02:12:44;;;;;;;25.00;14.90;;;2.10;99.90;;;;;;5012566;28;20519;-51
2021/03/22 02:15:12;;;;;;;26.17;14.90;;;2.10;99.90;;;;;;5012103;28;20456;-50
2021/03/22 02:17:49;;;;;;;29.43;16.40;;;2.00;99.90;;;;;;5011050;28;20855;-50
2021/03/22 02:21:06;;;;;;;22.97;14.60;;;2.30;99.90;;;;;;5013532;28;20535;-50
2021/03/22 02:24:03;;;;;;;29.03;15.10;;;2.20;99.90;;;;;;5026447;28;20628;-50
2021/03/22 02:27:04;;;;;;;29.93;15.80;;;2.10;99.90;;;;;;5021376;28;20476;-50
2021/03/22 02:29:44;;;;;;;26.73;15.10;;;2.10;99.90;;;;;;4965506;28;20457;-50
2021/03/22 02:32:24;;;;;;;26.00;15.53;;;2.20;99.90;;;;;;5011710;28;20453;-50
2021/03/22 02:34:55;;;;;;;29.43;15.30;;;2.20;99.90;;;;;;4995593;28;21018;-50
2021/03/22 02:37:35;;;;;;;28.40;16.27;;;2.10;99.90;;;;;;5006806;28;20845;-49
2021/03/22 02:40:11;;;;;;;32.07;16.80;;;2.20;99.90;;;;;;5018531;28;20444;-50
2021/03/22 02:42:43;;;;;;;27.97;16.30;;;2.30;99.90;;;;;;5018682;28;20452;-50
2021/03/22 02:45:10;;;;;;;28.13;15.10;;;2.30;99.90;;;;;;5011536;28;21029;-49
2021/03/22 02:47:39;;;;;;;23.97;14.60;;;2.40;99.90;;;;;;5011828;28;20963;-51
2021/03/22 02:50:10;;;;;;;27.20;16.73;;;2.40;99.90;;;;;;5011675;28;20445;-50
2021/03/22 02:53:05;;;;;;;25.60;15.60;;;2.40;99.90;;;;;;4999680;28;21002;-50
2021/03/22 02:55:39;;;;;;;25.67;16.07;;;2.40;99.90;;;;;;4993067;28;20462;-50
2021/03/22 02:58:09;;;;;;;30.10;16.10;;;2.40;99.90;;;;;;5011594;28;20519;-50
2021/03/22 03:00:39;;;;;;;32.77;15.40;;;2.40;99.90;;;;;;5011607;28;20446;-50
2021/03/22 03:03:09;;;;;;;27.73;16.33;;;2.30;99.90;;;;;;4995687;28;20482;-50
2021/03/22 03:05:37;;;;;;;31.50;16.87;;;2.30;99.90;;;;;;5003532;28;20453;-51
2021/03/22 03:08:08;;;;;;;27.10;15.93;;;2.40;99.90;;;;;;5012670;28;20446;-50
2021/03/22 03:10:34;;;;;;;30.00;16.43;;;2.50;99.90;;;;;;5011542;28;20450;-50
2021/03/22 03:13:01;;;;;;;26.00;15.33;;;2.30;99.90;;;;;;4996502;28;20458;-50
2021/03/22 03:15:28;;;;;;;25.97;15.17;;;2.30;99.90;;;;;;5003984;28;20450;-50
2021/03/22 03:17:54;;;;;;;30.07;16.50;;;2.30;99.90;;;;;;5011430;28;20480;-50
2021/03/22 03:20:24;;;;;;;29.60;16.47;;;2.30;99.90;;;;;;5011555;28;20457;-50
2021/03/22 03:22:51;;;;;;;27.83;16.70;;;2.30;99.90;;;;;;5019833;28;20444;-50
2021/03/22 03:25:19;;;;;;;31.00;16.97;;;2.30;99.90;;;;;;5030757;28;21191;-50
2021/03/22 03:27:45;;;;;;;30.77;17.20;;;2.10;99.90;;;;;;5030905;28;20456;-49
2021/03/22 03:30:17;;;;;;;27.63;17.07;;;2.10;99.90;;;;;;5031067;28;20456;-50
2021/03/22 03:32:44;;;;;;;31.97;17.97;;;2.20;99.90;;;;;;5018237;28;20457;-49
2021/03/22 03:35:14;;;;;;;30.30;17.37;;;2.20;99.90;;;;;;5010904;28;20454;-50
2021/03/22 03:37:41;;;;;;;31.77;17.60;;;2.10;99.90;;;;;;4991698;28;20963;-50
2021/03/22 03:40:10;;;;;;;29.07;17.03;;;2.20;99.90;;;;;;4991721;28;20523;-50
2021/03/22 03:42:36;;;;;;;27.40;16.30;;;2.30;99.90;;;;;;5002185;28;20453;-50
2021/03/22 03:45:05;;;;;;;30.33;17.23;;;2.30;99.90;;;;;;5010836;28;20492;-50
2021/03/22 03:47:32;;;;;;;30.27;17.20;;;2.40;99.90;;;;;;5010914;28;20453;-50
2021/03/22 03:49:58;;;;;;;28.83;17.30;;;2.30;99.90;;;;;;5025014;28;20448;-50
2021/03/22 03:52:25;;;;;;;30.77;16.77;;;2.30;99.90;;;;;;5022490;28;20450;-50
2021/03/22 03:54:51;;;;;;;30.80;17.60;;;2.40;99.90;;;;;;5030591;28;20467;-50
2021/03/22 03:57:19;;;;;;;29.43;17.13;;;2.40;99.90;;;;;;5030478;28;21011;-51
2021/03/22 03:59:45;;;;;;;31.17;18.30;;;2.30;99.90;;;;;;5032156;28;20511;-50
2021/03/22 04:02:12;;;;;;;29.57;18.03;;;2.30;99.90;;;;;;5028660;28;20507;-49
2021/03/22 04:04:38;;;;;;;29.43;17.97;;;2.40;99.90;;;;;;5014636;28;20476;-51
2021/03/22 04:07:05;;;;;;;30.60;18.07;;;2.50;99.90;;;;;;5014795;28;20536;-49
2021/03/22 04:09:34;;;;;;;27.10;16.60;;;2.30;99.90;;;;;;5014707;28;20456;-51
2021/03/22 04:12:01;;;;;;;28.40;18.13;;;2.40;99.90;;;;;;5013943;28;20453;-49
2021/03/22 04:14:29;;;;;;;39.10;18.97;;;2.50;99.90;;;;;;5014702;28;20841;-50
2021/03/22 04:16:56;;;;;;;30.57;19.17;;;2.50;99.90;;;;;;5014340;28;20457;-50
2021/03/22 04:19:23;;;;;;;32.00;17.50;;;2.60;99.90;;;;;;5014445;28;20493;-50
2021/03/22 04:21:50;;;;;;;35.53;19.40;;;2.60;99.90;;;;;;5013571;28;20831;-51
2021/03/22 04:24:18;;;;;;;30.53;18.17;;;2.50;99.90;;;;;;5014396;28;20492;-50
2021/03/22 04:26:45;;;;;;;34.00;19.50;;;2.40;99.90;;;;;;5014473;28;20445;-49
2021/03/22 04:29:11;;;;;;;31.20;19.00;;;2.40;99.90;;;;;;5014461;28;20445;-49
2021/03/22 04:31:39;;;;;;;32.73;19.40;;;2.50;99.90;;;;;;5012670;28;20508;-50
2021/03/22 04:34:06;;;;;;;31.97;19.30;;;2.50;99.90;;;;;;5013753;28;20476;-50
2021/03/22 04:36:35;;;;;;;36.53;19.37;;;2.60;99.90;;;;;;5014049;28;20442;-50
2021/03/22 04:39:03;;;;;;;34.10;19.23;;;2.70;99.90;;;;;;5014204;28;20484;-49
2021/03/22 04:41:30;;;;;;;29.93;17.57;;;2.70;99.90;;;;;;5013820;28;20449;-49
2021/03/22 04:43:56;;;;;;;32.40;19.40;;;2.70;99.90;;;;;;4994470;28;20458;-49
2021/03/22 04:46:23;;;;;;;27.80;17.40;;;2.80;99.90;;;;;;4994408;28;20458;-49
2021/03/22 04:48:50;;;;;;;33.23;18.50;;;2.80;99.90;;;;;;4994524;28;20520;-49
2021/03/22 04:51:16;;;;;;;34.50;18.43;;;2.80;99.90;;;;;;4994813;28;20485;-51
2021/03/22 04:53:43;;;;;;;27.23;16.40;;;2.70;99.90;;;;;;4994824;28;20483;-49
2021/03/22 04:56:09;;;;;;;28.20;17.20;;;2.70;99.90;;;;;;4994291;28;21019;-50
2021/03/22 04:58:36;;;;;;;27.23;16.20;;;2.70;99.90;;;;;;4994631;28;20893;-49
2021/03/22 05:01:05;;;;;;;28.70;17.60;;;2.80;99.90;;;;;;5004694;28;20448;-50
2021/03/22 05:03:32;;;;;;;29.63;17.23;;;2.60;99.90;;;;;;5005394;28;20480;-50
2021/03/22 05:06:00;;;;;;;29.37;16.60;;;2.40;99.90;;;;;;5014767;28;20489;-50
2021/03/22 05:08:27;;;;;;;30.73;17.47;;;2.60;99.90;;;;;;5016006;28;20958;-50
2021/03/22 05:10:57;;;;;;;29.07;17.33;;;2.70;99.90;;;;;;5019926;28;20482;-50
2021/03/22 05:13:24;;;;;;;31.10;17.70;;;2.70;99.90;;;;;;5027301;28;20474;-50
2021/03/22 05:15:51;;;;;;;24.83;15.27;;;2.80;99.90;;;;;;5046297;28;20476;-50
2021/03/22 05:18:19;;;;;;;24.57;16.67;;;2.80;99.90;;;;;;5047816;28;20472;-50
2021/03/22 05:20:47;;;;;;;28.53;15.70;;;2.80;99.90;;;;;;5032205;28;20446;-50
2021/03/22 05:23:17;;;;;;;29.53;17.13;;;2.70;99.90;;;;;;5031496;28;20485;-50
2021/03/22 05:25:44;;;;;;;28.50;16.80;;;2.60;99.90;;;;;;5017041;28;20456;-49
2021/03/22 05:28:13;;;;;;;29.50;16.40;;;2.70;99.90;;;;;;5017106;28;20449;-50
2021/03/22 05:30:40;;;;;;;28.83;16.70;;;2.70;99.90;;;;;;5008183;28;20488;-50
2021/03/22 05:33:08;;;;;;;30.90;17.50;;;2.60;99.90;;;;;;5003622;28;20813;-50
2021/03/22 05:35:35;;;;;;;25.93;16.30;;;2.70;99.90;;;;;;5013221;28;20450;-50
2021/03/22 05:38:03;;;;;;;30.63;18.53;;;2.80;99.90;;;;;;5013352;28;20856;-49
2021/03/22 05:40:34;;;;;;;35.60;19.60;;;2.80;99.90;;;;;;5013054;28;20449;-49
2021/03/22 05:43:08;;;;;;;32.43;19.63;;;2.90;99.90;;;;;;5013098;28;20457;-50
2021/03/22 05:46:14;;;;;;;38.07;20.53;;;3.00;99.90;;;;;;5012726;28;20874;-50
2021/03/22 05:49:05;;;;;;;37.03;20.70;;;3.00;99.90;;;;;;5016752;28;20484;-50
2021/03/22 05:52:12;;;;;;;36.60;19.60;;;2.90;99.90;;;;;;5020651;28;20458;-50
2021/03/22 05:55:05;;;;;;;34.90;19.93;;;3.00;99.90;;;;;;4997814;28;20500;-49
2021/03/22 05:58:02;;;;;;;37.23;19.60;;;2.90;99.90;;;;;;5015989;28;20510;-51
2021/03/22 06:00:44;;;;;;;33.07;20.47;;;2.80;99.90;;;;;;4991315;28;20450;-50
2021/03/22 06:03:20;;;;;;;35.23;21.77;;;2.80;99.90;;;;;;4992995;28;21003;-50
2021/03/22 06:05:50;;;;;;;34.80;21.10;;;2.80;99.90;;;;;;4995716;28;20446;-50
2021/03/22 06:08:30;;;;;;;31.30;19.50;;;2.90;99.90;;;;;;5012392;28;20496;-49
2021/03/22 06:11:00;;;;;;;35.77;19.50;;;2.90;99.90;;;;;;5014239;28;20536;-50
2021/03/22 06:13:31;;;;;;;32.73;19.67;;;3.00;99.90;;;;;;5031831;28;20464;-50
2021/03/22 06:16:02;;;;;;;32.37;19.67;;;3.00;99.90;;;;;;5025578;28;20850;-50
2021/03/22 06:18:32;;;;;;;34.93;19.73;;;3.00;99.90;;;;;;5014061;28;20914;-50
2021/03/22 06:21:03;;;;;;;35.43;20.60;;;3.00;99.90;;;;;;5013868;28;20461;-51
2021/03/22 06:23:35;;;;;;;30.53;18.53;;;2.90;99.90;;;;;;5011017;28;20477;-50
2021/03/22 06:26:03;;;;;;;28.00;18.03;;;3.00;99.90;;;;;;5011733;28;20465;-49
2021/03/22 06:28:33;;;;;;;30.93;18.77;;;3.10;99.90;;;;;;5012178;28;20523;-51
2021/03/22 06:31:03;;;;;;;27.63;18.10;;;3.10;99.90;;;;;;4992456;28;20450;-48
2021/03/22 06:33:35;;;;;;;28.10;17.57;;;3.20;99.90;;;;;;5013878;28;20978;-49
2021/03/22 06:36:02;;;;;;;28.73;16.87;;;3.10;99.90;;;;;;5020580;28;20473;-50
2021/03/22 06:38:28;;;;;;;30.47;17.60;;;3.00;99.90;;;;;;5012121;28;20484;-49
2021/03/22 06:40:55;;;;;;;30.70;17.30;;;3.10;99.90;;;;;;5025942;28;20502;-50
2021/03/22 06:43:24;;;;;;;31.07;17.70;;;3.20;99.90;;;;;;5010956;28;20476;-50
2021/03/22 06:45:53;;;;;;;30.80;17.60;;;3.30;99.90;;;;;;5008582;28;20449;-50
2021/03/22 06:48:23;;;;;;;32.30;17.57;;;3.40;99.90;;;;;;4994898;28;20447;-50
2021/03/22 06:50:52;;;;;;;32.40;16.63;;;3.30;99.90;;;;;;4992501;28;20461;-50
2021/03/22 06:53:33;;;;;;;33.40;18.50;;;3.30;99.90;;;;;;4992176;28;20842;-50
2021/03/22 06:56:12;;;;;;;27.90;15.50;;;3.50;99.90;;;;;;5009055;28;20450;-50
2021/03/22 06:58:39;;;;;;;25.73;14.63;;;3.80;99.90;;;;;;5010935;28;20493;-49
2021/03/22 07:01:31;;;;;;;26.23;15.87;;;3.90;99.90;;;;;;5023273;28;20453;-51
2021/03/22 07:04:17;;;;;;;25.40;15.27;;;3.60;99.90;;;;;;4995777;28;20461;-50
2021/03/22 07:06:43;;;;;;;30.03;14.77;;;3.80;99.90;;;;;;4999288;28;20452;-49
2021/03/22 07:09:30;;;;;;;27.90;15.00;;;4.00;99.90;;;;;;5010669;28;20455;-50
2021/03/22 07:11:56;;;;;;;28.17;15.37;;;4.10;99.90;;;;;;5010269;28;20531;-50
2021/03/22 07:14:25;;;;;;;31.60;15.63;;;4.00;99.90;;;;;;5010973;28;20458;-51
2021/03/22 07:17:05;;;;;;;26.03;15.27;;;4.00;99.90;;;;;;5011085;28;21029;-49
2021/03/22 07:19:34;;;;;;;26.80;15.13;;;4.00;99.90;;;;;;5010958;28;20567;-48
2021/03/22 07:22:04;;;;;;;23.60;14.33;;;4.10;99.90;;;;;;5011379;28;20454;-48
2021/03/22 07:24:46;;;;;;;27.20;14.77;;;3.90;99.90;;;;;;5011076;28;20481;-48
2021/03/22 07:27:29;;;;;;;29.13;15.60;;;4.10;99.90;;;;;;5011204;28;20445;-47
2021/03/22 07:30:20;;;;;;;27.43;13.63;;;4.20;99.90;;;;;;5011148;28;20449;-49
2021/03/22 07:32:55;;;;;;;24.17;14.80;;;4.30;99.90;;;;;;5011033;28;20946;-49
2021/03/22 07:35:59;;;;;;;25.03;15.80;;;4.40;99.90;;;;;;5010568;28;20507;-48
2021/03/22 07:38:50;;;;;;;25.57;14.23;;;4.30;99.90;;;;;;5011261;28;20489;-49
2021/03/22 07:41:25;;;;;;;30.93;15.10;;;4.40;99.90;;;;;;5011190;28;20445;-49
2021/03/22 07:44:09;;;;;;;33.13;19.50;;;4.70;99.90;;;;;;5010868;28;20473;-49
2021/03/22 07:46:54;;;;;;;41.40;22.27;;;4.80;99.90;;;;;;5010064;28;20466;-48
2021/03/22 07:49:32;;;;;;;30.30;16.63;;;4.90;99.90;;;;;;5010919;28;20441;-49
2021/03/22 07:52:26;;;;;;;35.93;15.97;;;4.90;99.90;;;;;;5010135;28;20454;-49
2021/03/22 07:55:17;;;;;;;30.50;15.27;;;4.90;99.90;;;;;;5015164;28;20488;-48
2021/03/22 07:57:50;;;;;;;33.40;19.50;;;4.90;99.90;;;;;;4975988;28;20988;-49
2021/03/22 08:00:25;;;;;;;44.80;17.13;;;5.20;99.90;;;;;;5022360;28;20572;-48
2021/03/22 08:03:06;;;;;;;32.33;16.60;;;5.40;99.90;;;;;;5030588;28;20949;-48
2021/03/22 08:05:43;;;;;;;25.07;13.50;;;5.50;99.90;;;;;;5030797;28;20449;-48
2021/03/22 08:08:17;;;;;;;30.13;11.57;;;5.20;99.90;;;;;;5030945;28;20448;-48
2021/03/22 08:10:51;;;;;;;26.87;11.60;;;5.10;99.90;;;;;;5017477;28;20511;-48
2021/03/22 08:13:44;;;;;;;40.10;19.50;;;5.20;99.90;;;;;;5010561;28;20470;-48
2021/03/22 08:16:26;;;;;;;38.37;20.87;;;5.20;99.90;;;;;;5010678;28;20453;-49
2021/03/22 08:18:56;;;;;;;32.13;16.33;;;5.50;99.90;;;;;;5066078;22;20465;-48
2021/03/22 08:21:30;;;;;;;32.13;15.00;;;5.90;99.90;;;;;;5069157;28;20213;-48
2021/03/22 08:24:02;;;;;;;28.07;13.20;;;6.00;99.90;;;;;;5069591;28;20451;-48
2021/03/22 08:26:35;;;;;;;32.78;12.52;;;5.90;99.90;;;;;;5068122;28;20509;-48
2021/03/22 08:29:11;;;;;;;25.87;9.40;;;5.50;99.90;;;;;;5056545;28;20332;-45
2021/03/22 08:31:45;;;;;;;20.23;10.37;;;5.30;99.90;;;;;;5054560;28;20447;-46
2021/03/22 08:34:20;;;;;;;30.73;9.60;;;5.20;99.90;;;;;;5062705;28;20483;-46
2021/03/22 08:37:01;;;;;;;28.93;8.67;;;4.80;99.90;;;;;;5049587;28;20458;-46
2021/03/22 08:39:32;;;;;;;22.83;9.50;;;4.50;99.90;;;;;;5049474;28;20541;-46
2021/03/22 08:42:09;;;;;;;34.97;9.70;;;4.40;99.90;;;;;;5052782;28;20833;-46
2021/03/22 08:44:40;;;;;;;23.33;8.97;;;4.40;99.90;;;;;;5029470;28;20463;-47
2021/03/22 08:47:18;;;;;;;28.43;9.43;;;4.40;99.90;;;;;;5037453;28;20464;-47
2021/03/22 08:49:52;;;;;;;24.30;9.27;;;4.60;99.90;;;;;;5069665;28;20439;-47
2021/03/22 08:52:27;;;;;;;22.00;9.37;;;4.70;99.90;;;;;;5053389;28;20454;-46
2021/03/22 08:55:10;;;;;;;31.63;10.57;;;4.70;99.90;;;;;;5052886;28;20465;-47
2021/03/22 08:57:46;;;;;;;25.53;8.33;;;5.00;99.90;;;;;;5061816;28;20498;-46
2021/03/22 09:00:33;;;;;;;27.20;9.70;;;5.30;99.90;;;;;;5072894;28;20625;-46
2021/03/22 09:03:03;;;;;;;22.80;8.43;;;5.40;99.90;;;;;;5040344;28;21010;-47
2021/03/22 09:05:33;;;;;;;41.37;19.30;;;5.60;99.90;;;;;;5052698;28;20975;-47
2021/03/22 09:08:20;;;;;;;24.73;8.37;;;5.70;99.90;;;;;;5065013;28;20467;-46
2021/03/22 09:10:48;;;;;;;22.50;9.03;;;5.60;99.90;;;;;;5072978;28;21014;-47
2021/03/22 09:13:28;;;;;;;23.00;8.70;;;5.50;99.90;;;;;;5072984;28;20447;-46
2021/03/22 09:16:21;;;;;;;21.10;7.60;;;5.70;99.90;;;;;;5072719;28;20450;-47
2021/03/22 09:19:19;;;;;;;24.03;9.50;;;5.70;99.90;;;;;;5044421;28;20487;-46
2021/03/22 09:21:47;;;;;;;21.87;9.57;;;5.40;99.90;;;;;;5039833;28;20451;-46
2021/03/22 09:24:48;;;;;;;25.67;8.90;;;5.10;99.90;;;;;;5052583;28;20452;-46
2021/03/22 09:27:33;;;;;;;25.43;8.93;;;5.00;99.90;;;;;;5055884;28;20529;-45
2021/03/22 09:30:26;;;;;;;27.00;8.97;;;4.70;99.90;;;;;;5055784;28;20503;-46
2021/03/22 09:32:52;;;;;;;21.83;8.93;;;4.70;99.90;;;;;;5032737;28;20444;-46
2021/03/22 09:36:10;;;;;;;24.73;9.13;;;4.80;99.90;;;;;;5032267;28;20988;-46
2021/03/22 09:38:47;;;;;;;23.60;7.27;;;4.90;99.90;;;;;;5071786;28;20957;-46
2021/03/22 09:41:14;;;;;;;21.00;7.07;;;4.70;99.90;;;;;;5072471;28;20438;-46
2021/03/22 09:43:43;;;;;;;25.33;8.00;;;4.70;99.90;;;;;;5067368;28;20456;-46
2021/03/22 09:46:46;;;;;;;25.77;7.87;;;4.70;99.90;;;;;;5051854;28;20577;-46
2021/03/22 09:49:23;;;;;;;20.20;7.03;;;4.70;99.90;;;;;;5047112;28;20471;-46
2021/03/22 09:52:22;;;;;;;18.23;7.30;;;4.70;99.90;;;;;;5062482;28;20447;-47
2021/03/22 09:54:49;;;;;;;18.83;7.07;;;4.90;99.90;;;;;;5071744;28;20454;-46
2021/03/22 09:57:37;;;;;;;21.07;6.37;;;4.90;99.90;;;;;;5062645;28;20443;-46
2021/03/22 10:00:26;;;;;;;18.30;6.50;;;5.10;99.90;;;;;;5052268;28;20570;-46
2021/03/22 10:02:55;;;;;;;25.87;7.10;;;4.80;99.90;;;;;;5065901;28;20453;-46
2021/03/22 10:05:24;;;;;;;16.87;7.50;;;4.70;99.90;;;;;;5037752;28;20488;-46
2021/03/22 10:08:00;;;;;;;22.33;8.60;;;4.80;99.90;;;;;;5071513;28;20471;-46
2021/03/22 10:10:34;;;;;;;20.90;9.53;;;4.90;99.90;;;;;;5062052;28;20448;-46
2021/03/22 10:13:08;;;;;;;30.23;7.80;;;5.20;99.90;;;;;;5071306;28;20452;-47
2021/03/22 10:15:45;;;;;;;22.40;8.00;;;5.30;99.90;;;;;;5071470;28;20479;-47
2021/03/22 10:18:20;;;;;;;21.77;8.00;;;5.30;99.90;;;;;;5071362;28;20482;-47
2021/03/22 10:20:49;;;;;;;25.10;7.83;;;5.40;99.90;;;;;;5069880;28;20450;-47
2021/03/22 10:23:23;;;;;;;20.87;7.40;;;5.20;99.90;;;;;;5051907;28;20448;-46
2021/03/22 10:25:53;;;;;;;18.87;6.50;;;5.20;99.90;;;;;;5051554;28;20832;-46
2021/03/22 10:28:23;;;;;;;21.50;8.90;;;5.10;99.90;;;;;;5048364;28;20474;-46
2021/03/22 10:30:59;;;;;;;26.70;8.80;;;5.20;99.90;;;;;;5057888;28;20463;-46
2021/03/22 10:33:27;;;;;;;25.37;8.73;;;5.50;99.90;;;;;;5051304;28;20452;-46
2021/03/22 10:35:56;;;;;;;27.73;10.40;;;5.80;99.90;;;;;;5052594;28;20525;-46
2021/03/22 10:38:24;;;;;;;18.77;6.90;;;6.00;99.90;;;;;;5070666;28;20495;-46
2021/03/22 10:40:51;;;;;;;21.87;7.47;;;6.20;99.90;;;;;;5051591;28;21071;-46
2021/03/22 10:43:38;;;;;;;23.47;6.50;;;6.00;99.90;;;;;;5051282;28;20450;-46
2021/03/22 10:46:16;;;;;;;17.07;6.10;;;5.90;99.90;;;;;;5036496;28;20535;-47
2021/03/22 10:48:43;;;;;;;26.40;6.60;;;5.90;99.90;;;;;;5071023;28;20460;-47
2021/03/22 10:51:14;;;;;;;18.60;6.63;;;5.90;99.90;;;;;;5071106;28;20443;-46
2021/03/22 10:53:55;;;;;;;22.00;6.63;;;5.90;99.90;;;;;;5064729;28;20444;-46
2021/03/22 10:56:27;;;;;;;20.00;7.60;;;6.00;99.90;;;;;;5050751;28;20440;-46
2021/03/22 10:58:57;;;;;;;20.60;6.10;;;6.40;99.90;;;;;;5050572;28;20483;-47
2021/03/22 11:01:25;;;;;;;22.10;8.00;;;6.60;99.90;;;;;;5050942;28;20453;-47
2021/03/22 11:04:02;;;;;;;24.63;9.40;;;6.80;99.90;;;;;;5050672;28;20457;-47
2021/03/22 11:06:32;;;;;;;24.53;6.27;;;6.90;99.90;;;;;;5050525;28;20448;-46
2021/03/22 11:09:01;;;;;;;25.87;7.23;;;6.50;99.90;;;;;;5049949;28;20930;-46
2021/03/22 11:11:30;;;;;;;20.37;6.27;;;6.40;99.90;;;;;;5056222;28;20549;-46
2021/03/22 11:14:01;;;;;;;13.73;6.33;;;6.40;99.90;;;;;;5070793;28;20448;-46
2021/03/22 11:16:31;;;;;;;23.47;6.40;;;6.30;99.90;;;;;;5054239;28;20443;-46
2021/03/22 11:18:58;;;;;;;20.37;5.97;;;5.90;99.90;;;;;;5062366;28;20899;-46
2021/03/22 11:21:27;;;;;;;15.63;6.30;;;6.10;99.90;;;;;;5069508;28;20451;-46
2021/03/22 11:23:56;;;;;;;17.07;6.10;;;6.00;99.90;;;;;;5070211;28;20449;-46
2021/03/22 11:26:25;;;;;;;21.57;9.10;;;6.00;99.90;;;;;;5055668;28;20455;-47
2021/03/22 11:28:53;;;;;;;18.87;6.33;;;6.20;99.90;;;;;;5050048;28;20540;-46
2021/03/22 11:31:26;;;;;;;16.87;5.47;;;6.10;99.90;;;;;;5050703;28;20514;-46
2021/03/22 11:34:01;;;;;;;22.23;6.40;;;5.80;99.90;;;;;;5050712;28;20444;-46
2021/03/22 11:36:33;;;;;;;20.60;5.90;;;5.60;99.90;;;;;;5047419;28;20519;-46
2021/03/22 11:39:10;;;;;;;17.37;6.07;;;5.60;99.90;;;;;;5044453;28;20494;-46
2021/03/22 11:41:39;;;;;;;11.93;5.57;;;5.80;99.90;;;;;;5050142;28;20475;-46
2021/03/22 11:44:17;;;;;;;19.20;7.20;;;6.30;99.90;;;;;;5050130;28;21000;-45
2021/03/22 11:46:49;;;;;;;16.03;6.00;;;6.10;99.90;;;;;;5068432;28;20458;-46
2021/03/22 11:49:38;;;;;;;16.43;5.50;;;5.70;99.90;;;;;;5070128;28;20473;-46
2021/03/22 11:52:16;;;;;;;22.13;6.17;;;5.70;99.90;;;;;;5070088;28;20883;-46
2021/03/22 11:54:52;;;;;;;20.17;6.33;;;5.60;99.90;;;;;;5052828;28;20451;-46
2021/03/22 11:57:22;;;;;;;21.03;8.13;;;5.80;99.90;;;;;;5050055;28;20451;-46
2021/03/22 11:59:54;;;;;;;19.93;6.23;;;5.70;99.90;;;;;;5050030;28;20483;-45
2021/03/22 12:02:29;;;;;;;31.97;8.03;;;5.70;99.90;;;;;;5063683;28;20466;-45
2021/03/22 12:05:00;;;;;;;25.57;6.40;;;5.80;99.90;;;;;;5069498;28;20454;-45
2021/03/22 12:07:36;;;;;;;17.90;5.90;;;6.00;99.90;;;;;;5069835;28;20952;-45
2021/03/22 12:10:03;;;;;;;22.87;6.63;;;6.10;99.90;;;;;;5070228;28;20489;-45
2021/03/22 12:12:30;;;;;;;15.43;5.23;;;6.00;99.90;;;;;;5054377;28;20915;-46
2021/03/22 12:14:56;;;;;;;14.77;5.87;;;5.90;99.90;;;;;;5049644;28;20452;-46
2021/03/22 12:17:28;;;;;;;21.30;7.07;;;5.70;99.90;;;;;;5049667;28;20507;-46
2021/03/22 12:19:55;;;;;;;18.07;6.37;;;5.60;99.90;;;;;;5060404;28;20482;-46
2021/03/22 12:22:23;;;;;;;21.83;5.70;;;5.60;99.90;;;;;;5073808;28;20511;-45
2021/03/22 12:24:50;;;;;;;17.10;5.80;;;5.60;99.90;;;;;;5051709;28;20457;-45
2021/03/22 12:27:19;;;;;;;16.67;5.40;;;5.50;99.90;;;;;;5043359;28;20456;-46
2021/03/22 12:29:45;;;;;;;17.67;6.33;;;5.50;99.90;;;;;;5051953;28;20903;-46
2021/03/22 12:32:18;;;;;;;12.20;5.10;;;5.60;99.90;;;;;;5034582;28;20896;-45
2021/03/22 12:34:46;;;;;;;13.80;5.80;;;5.90;99.90;;;;;;5043440;28;20451;-46
2021/03/22 12:37:22;;;;;;;14.43;5.30;;;6.20;99.90;;;;;;5054487;28;20458;-46
2021/03/22 12:39:49;;;;;;;21.73;4.90;;;6.00;99.90;;;;;;5053694;28;20493;-46
2021/03/22 12:42:16;;;;;;;13.87;4.30;;;5.90;99.90;;;;;;5051367;28;20460;-46
2021/03/22 12:44:43;;;;;;;11.03;4.07;;;5.70;99.90;;;;;;5033665;28;20968;-46
2021/03/22 12:47:15;;;;;;;12.53;4.10;;;5.80;99.90;;;;;;5069501;28;20537;-46
2021/03/22 12:49:41;;;;;;;13.43;3.93;;;5.90;99.90;;;;;;5064005;28;20952;-45
2021/03/22 12:52:09;;;;;;;9.67;4.17;;;5.80;99.90;;;;;;5045972;28;20522;-46
2021/03/22 12:54:36;;;;;;;16.73;5.20;;;6.00;99.90;;;;;;5051087;28;20447;-46
2021/03/22 12:57:03;;;;;;;16.13;4.63;;;6.50;99.90;;;;;;5045557;28;20438;-46
2021/03/22 12:59:33;;;;;;;17.43;5.37;;;6.80;99.90;;;;;;5061395;28;20539;-46
2021/03/22 13:02:02;;;;;;;13.43;4.77;;;6.90;99.90;;;;;;5053499;28;20470;-45
2021/03/22 13:04:32;;;;;;;11.53;4.43;;;6.70;99.90;;;;;;5065696;28;20465;-46
2021/03/22 13:06:59;;;;;;;12.93;5.80;;;6.50;99.90;;;;;;5057641;28;20447;-45
2021/03/22 13:09:26;;;;;;;17.40;4.90;;;6.60;99.90;;;;;;5053437;28;20533;-46